createdAt,value
2018-11-26T00:01:01.511Z,30.73
2018-11-26T00:03:30.096Z,29.77
2018-11-26T00:05:58.710Z,27.83
2018-11-26T00:08:27.446Z,29.87
2018-11-26T00:12:01.814Z,28.83
2018-11-26T00:14:30.520Z,26.87
2018-11-26T00:16:59.136Z,27.13
2018-11-26T00:19:27.927Z,26.30
2018-11-26T00:21:56.549Z,28.80
2018-11-26T00:24:25.106Z,29.53
2018-11-26T00:26:53.722Z,28.97
2018-11-26T00:29:22.340Z,27.93
2018-11-26T00:31:50.860Z,29.37
2018-11-26T00:34:19.505Z,29.17
2018-11-26T00:36:48.234Z,25.77
2018-11-26T00:39:16.983Z,30.87
2018-11-26T00:41:45.654Z,31.23
2018-11-26T00:44:14.951Z,29.70
2018-11-26T00:46:43.551Z,28.90
2018-11-26T00:49:12.224Z,28.53
2018-11-26T00:51:40.799Z,28.40
2018-11-26T00:54:09.436Z,31.97
2018-11-26T00:56:38.001Z,31.77
2018-11-26T00:59:06.698Z,30.47
2018-11-26T01:01:35.240Z,29.97
2018-11-26T01:04:03.867Z,30.00
2018-11-26T01:06:32.464Z,30.13
2018-11-26T01:09:01.008Z,31.77
2018-11-26T01:11:29.626Z,29.67
2018-11-26T01:13:58.342Z,30.97
2018-11-26T01:16:26.911Z,34.10
2018-11-26T01:18:55.514Z,31.90
2018-11-26T01:21:24.057Z,34.57
2018-11-26T01:23:52.631Z,34.23
2018-11-26T01:26:21.194Z,33.70
2018-11-26T01:28:49.817Z,33.47
2018-11-26T01:31:18.355Z,36.97
2018-11-26T01:33:46.980Z,33.03
2018-11-26T01:36:15.555Z,34.87
2018-11-26T01:38:44.179Z,35.23
2018-11-26T01:41:12.821Z,36.03
2018-11-26T01:43:41.413Z,36.60
2018-11-26T01:46:09.961Z,34.67
2018-11-26T01:48:39.266Z,35.30
2018-11-26T01:51:08.020Z,36.33
2018-11-26T01:53:36.638Z,37.97
2018-11-26T01:56:05.712Z,35.90
2018-11-26T01:58:34.298Z,32.90
2018-11-26T02:01:02.960Z,36.87
2018-11-26T02:03:31.590Z,33.30
2018-11-26T02:06:00.205Z,34.57
2018-11-26T02:08:28.840Z,36.10
2018-11-26T02:10:57.605Z,36.27
2018-11-26T02:13:26.202Z,38.80
2018-11-26T02:15:55.049Z,35.40
2018-11-26T02:18:23.785Z,38.10
2018-11-26T02:20:52.473Z,37.83
2018-11-26T02:23:21.149Z,33.03
2018-11-26T02:25:49.757Z,37.53
2018-11-26T02:28:18.363Z,34.47
2018-11-26T02:30:46.963Z,35.30
2018-11-26T02:33:15.856Z,32.30
2018-11-26T02:35:44.453Z,33.90
2018-11-26T02:38:13.014Z,32.63
2018-11-26T02:40:41.590Z,34.83
2018-11-26T02:43:10.126Z,33.77
2018-11-26T02:45:38.768Z,33.10
2018-11-26T02:48:07.408Z,32.77
2018-11-26T02:50:36.029Z,32.33
2018-11-26T02:53:04.608Z,33.43
2018-11-26T02:55:33.365Z,32.90
2018-11-26T02:58:01.990Z,31.57
2018-11-26T03:00:30.605Z,32.30
2018-11-26T03:02:59.251Z,30.70
2018-11-26T03:05:29.694Z,33.23
2018-11-26T03:07:58.401Z,30.60
2018-11-26T03:10:27.085Z,33.40
2018-11-26T03:12:55.696Z,32.20
2018-11-26T03:15:24.327Z,33.40
2018-11-26T03:17:52.940Z,30.50
2018-11-26T03:20:21.597Z,30.17
2018-11-26T03:22:50.285Z,31.83
2018-11-26T03:25:18.935Z,30.87
2018-11-26T03:27:47.528Z,32.77
2018-11-26T03:30:19.191Z,31.83
2018-11-26T03:32:47.794Z,28.70
2018-11-26T03:35:16.440Z,29.53
2018-11-26T03:37:45.117Z,27.20
2018-11-26T03:40:14.223Z,27.97
2018-11-26T03:42:43.311Z,27.57
2018-11-26T03:45:15.063Z,27.03
2018-11-26T03:47:43.789Z,26.93
2018-11-26T03:50:13.187Z,27.90
2018-11-26T03:52:42.856Z,29.50
2018-11-26T03:55:11.997Z,30.73
2018-11-26T03:57:40.592Z,33.77
2018-11-26T04:00:14.430Z,32.03
2018-11-26T04:02:43.043Z,31.67
2018-11-26T04:05:11.963Z,32.80
2018-11-26T04:07:40.756Z,31.77
2018-11-26T04:10:10.513Z,30.57
2018-11-26T04:12:39.040Z,32.00
2018-11-26T04:15:09.774Z,29.50
2018-11-26T04:17:38.430Z,31.27
2018-11-26T04:20:08.120Z,29.90
2018-11-26T04:22:36.753Z,29.07
2018-11-26T04:25:06.261Z,29.90
2018-11-26T04:27:34.919Z,29.03
2018-11-26T04:30:03.673Z,30.13
2018-11-26T04:32:32.278Z,31.20
2018-11-26T04:35:00.844Z,30.27
2018-11-26T04:37:29.424Z,25.53
2018-11-26T04:39:58.016Z,28.60
2018-11-26T04:42:26.656Z,30.10
2018-11-26T04:44:55.270Z,29.90
2018-11-26T04:47:23.880Z,26.80
2018-11-26T04:49:53.174Z,29.33
2018-11-26T04:52:21.816Z,27.97
2018-11-26T04:54:50.376Z,29.37
2018-11-26T04:57:18.960Z,28.73
2018-11-26T04:59:47.555Z,25.83
2018-11-26T05:02:16.452Z,27.30
2018-11-26T05:04:45.059Z,28.37
2018-11-26T05:07:13.606Z,29.47
2018-11-26T05:09:42.195Z,26.43
2018-11-26T05:12:10.781Z,25.20
2018-11-26T05:14:39.364Z,29.57
2018-11-26T05:17:07.931Z,27.80
2018-11-26T05:19:36.483Z,30.27
2018-11-26T05:22:05.969Z,28.97
2018-11-26T05:24:34.544Z,30.13
2018-11-26T05:27:03.115Z,27.90
2018-11-26T05:29:31.637Z,25.67
2018-11-26T05:32:00.172Z,28.00
2018-11-26T05:34:28.776Z,28.97
2018-11-26T05:36:57.351Z,29.80
2018-11-26T05:39:25.919Z,26.80
2018-11-26T05:41:54.748Z,30.27
2018-11-26T05:44:23.512Z,30.67
2018-11-26T05:46:52.144Z,30.77
2018-11-26T05:49:20.713Z,30.03
2018-11-26T05:51:49.230Z,27.53
2018-11-26T05:54:17.756Z,30.00
2018-11-26T05:56:46.316Z,30.17
2018-11-26T05:59:14.850Z,31.23
2018-11-26T06:01:43.379Z,31.43
2018-11-26T06:04:12.067Z,31.63
2018-11-26T06:06:40.693Z,29.37
2018-11-26T06:09:10.918Z,32.13
2018-11-26T06:11:40.265Z,30.87
2018-11-26T06:14:08.963Z,31.30
2018-11-26T06:16:37.941Z,29.33
2018-11-26T06:19:06.819Z,33.23
2018-11-26T06:21:35.477Z,30.70
2018-11-26T06:24:04.050Z,29.73
2018-11-26T06:26:32.606Z,29.57
2018-11-26T06:29:01.228Z,33.23
2018-11-26T06:31:29.854Z,31.13
2018-11-26T06:33:58.389Z,31.43
2018-11-26T06:36:26.912Z,29.77
2018-11-26T06:38:55.829Z,32.23
2018-11-26T06:41:24.336Z,32.33
2018-11-26T06:43:52.928Z,31.87
2018-11-26T06:46:21.464Z,33.00
2018-11-26T06:48:49.992Z,33.47
2018-11-26T06:51:18.537Z,31.43
2018-11-26T06:53:47.137Z,33.17
2018-11-26T06:56:15.678Z,31.10
2018-11-26T06:58:44.301Z,35.60
2018-11-26T07:01:12.909Z,32.73
2018-11-26T07:03:41.520Z,34.23
2018-11-26T07:06:10.033Z,34.70
2018-11-26T07:08:38.585Z,29.93
2018-11-26T07:11:07.147Z,34.70
2018-11-26T07:13:35.723Z,31.73
2018-11-26T07:16:04.310Z,34.73
2018-11-26T07:18:32.827Z,33.97
2018-11-26T07:21:01.385Z,30.13
2018-11-26T07:23:29.951Z,31.47
2018-11-26T07:25:58.543Z,31.47
2018-11-26T07:28:27.096Z,34.20
2018-11-26T07:30:55.588Z,30.10
2018-11-26T07:33:24.161Z,27.83
2018-11-26T07:35:52.768Z,27.27
2018-11-26T07:38:21.276Z,34.17
2018-11-26T07:40:49.792Z,30.60
2018-11-26T07:43:19.193Z,32.67
2018-11-26T07:45:47.678Z,32.63
2018-11-26T07:48:16.197Z,32.47
2018-11-26T07:50:44.717Z,41.77
2018-11-26T07:53:13.264Z,35.70
2018-11-26T07:55:41.907Z,32.30
2018-11-26T07:58:10.425Z,34.23
2018-11-26T08:00:38.963Z,33.97
2018-11-26T08:03:07.641Z,33.80
2018-11-26T08:05:36.155Z,29.63
2018-11-26T08:08:04.690Z,32.67
2018-11-26T08:10:33.295Z,27.40
2018-11-26T08:13:01.861Z,30.63
2018-11-26T08:15:30.399Z,34.43
2018-11-26T08:17:58.990Z,33.70
2018-11-26T08:20:27.526Z,34.63
2018-11-26T08:22:56.089Z,35.57
2018-11-26T08:25:25.047Z,36.73
2018-11-26T08:27:53.709Z,38.03
2018-11-26T08:30:27.541Z,32.73
2018-11-26T08:33:00.770Z,35.77
2018-11-26T08:35:29.896Z,32.47
2018-11-26T08:38:03.896Z,29.87
2018-11-26T08:40:37.714Z,36.30
2018-11-26T08:43:07.303Z,34.40
2018-11-26T08:45:37.013Z,36.43
2018-11-26T08:48:10.394Z,36.43
2018-11-26T08:50:41.571Z,21.87
2018-11-26T08:53:10.127Z,35.37
2018-11-26T08:55:38.723Z,29.60
2018-11-26T08:58:07.253Z,30.83
2018-11-26T09:00:35.707Z,33.63
2018-11-26T09:03:10.469Z,35.93
2018-11-26T09:05:45.062Z,33.80
2018-11-26T09:08:14.664Z,34.90
2018-11-26T09:10:43.215Z,32.63
2018-11-26T09:13:11.725Z,33.90
2018-11-26T09:15:40.438Z,34.73
2018-11-26T09:18:09.945Z,26.37
2018-11-26T09:20:38.520Z,31.37
2018-11-26T09:23:07.169Z,30.70
2018-11-26T09:25:35.668Z,31.47
2018-11-26T09:28:04.199Z,31.90
2018-11-26T09:30:32.783Z,30.20
2018-11-26T09:33:01.315Z,31.27
2018-11-26T09:35:29.937Z,29.77
2018-11-26T09:37:58.464Z,27.43
2018-11-26T09:40:26.967Z,29.77
2018-11-26T09:42:55.478Z,28.03
2018-11-26T09:45:24.025Z,31.20
2018-11-26T09:47:52.583Z,29.37
2018-11-26T09:50:22.437Z,30.10
2018-11-26T09:52:50.965Z,27.40
2018-11-26T09:55:19.614Z,30.97
2018-11-26T09:57:48.125Z,28.23
2018-11-26T10:00:19.117Z,30.60
2018-11-26T10:02:48.744Z,27.83
2018-11-26T10:05:21.415Z,26.80
2018-11-26T10:07:49.995Z,27.97
2018-11-26T10:10:18.585Z,29.20
2018-11-26T10:12:47.267Z,29.07
2018-11-26T10:15:24.771Z,26.93
2018-11-26T10:17:53.444Z,27.10
2018-11-26T10:20:21.976Z,28.50
2018-11-26T10:22:51.815Z,26.77
2018-11-26T10:25:21.395Z,27.60
2018-11-26T10:27:49.931Z,26.40
2018-11-26T10:30:20.284Z,22.97
2018-11-26T10:32:50.232Z,24.63
2018-11-26T10:35:19.478Z,22.10
2018-11-26T10:37:48.148Z,20.17
2018-11-26T10:40:22.397Z,19.73
2018-11-26T10:42:51.002Z,21.30
2018-11-26T10:45:21.435Z,19.53
2018-11-26T10:47:49.992Z,18.93
2018-11-26T10:50:21.000Z,19.23
2018-11-26T10:52:52.785Z,20.27
2018-11-26T10:55:24.681Z,16.20
2018-11-26T10:57:53.214Z,12.87
2018-11-26T11:00:26.994Z,18.37
2018-11-26T11:02:55.866Z,18.73
2018-11-26T11:05:24.162Z,19.77
2018-11-26T11:07:52.680Z,19.17
2018-11-26T11:10:23.211Z,19.33
2018-11-26T11:12:51.960Z,15.20
2018-11-26T11:15:20.583Z,18.90
2018-11-26T11:17:49.165Z,19.83
2018-11-26T11:20:18.732Z,16.20
2018-11-26T11:22:47.282Z,17.63
2018-11-26T11:25:16.744Z,17.10
2018-11-26T11:27:45.464Z,18.27
2018-11-26T11:30:17.925Z,19.97
2018-11-26T11:32:46.425Z,18.70
2018-11-26T11:35:15.555Z,17.20
2018-11-26T11:37:45.110Z,20.77
2018-11-26T11:40:19.713Z,26.97
2018-11-26T11:42:48.501Z,21.57
2018-11-26T11:45:17.282Z,20.30
2018-11-26T11:47:45.803Z,21.47
2018-11-26T11:50:16.499Z,17.53
2018-11-26T11:52:45.342Z,21.00
2018-11-26T11:55:15.958Z,20.23
2018-11-26T11:57:44.525Z,18.37
2018-11-26T12:00:35.327Z,19.07
2018-11-26T12:03:06.080Z,19.43
2018-11-26T12:05:34.618Z,21.27
2018-11-26T12:08:03.236Z,18.73
2018-11-26T12:10:31.824Z,21.33
2018-11-26T12:13:00.344Z,22.63
2018-11-26T12:15:28.938Z,21.83
2018-11-26T12:17:57.474Z,19.40
2018-11-26T12:20:26.003Z,22.60
2018-11-26T12:22:54.518Z,17.70
2018-11-26T12:25:23.078Z,17.67
2018-11-26T12:27:51.700Z,17.97
2018-11-26T12:30:22.344Z,17.57
2018-11-26T12:32:50.891Z,17.93
2018-11-26T12:35:19.428Z,17.57
2018-11-26T12:37:48.029Z,18.53
2018-11-26T12:40:17.929Z,17.63
2018-11-26T12:42:46.625Z,17.50
2018-11-26T12:45:16.508Z,18.10
2018-11-26T12:47:45.084Z,18.43
2018-11-26T12:50:13.662Z,18.83
2018-11-26T12:52:42.186Z,18.70
2018-11-26T12:55:14.305Z,18.63
2018-11-26T12:57:43.682Z,18.77
2018-11-26T13:00:14.329Z,21.33
2018-11-26T13:02:43.134Z,18.10
2018-11-26T13:05:13.109Z,18.73
2018-11-26T13:07:41.719Z,20.60
2018-11-26T13:10:13.596Z,19.60
2018-11-26T13:12:42.351Z,18.93
2018-11-26T13:15:13.173Z,20.53
2018-11-26T13:17:41.749Z,20.33
2018-11-26T13:20:13.467Z,21.77
2018-11-26T13:22:42.140Z,19.50
2018-11-26T13:25:12.826Z,21.20
2018-11-26T13:27:42.863Z,21.23
2018-11-26T13:30:28.303Z,21.90
2018-11-26T13:32:58.023Z,21.43
2018-11-26T13:35:26.726Z,20.37
2018-11-26T13:37:55.312Z,23.43
2018-11-26T13:40:23.940Z,22.53
2018-11-26T13:42:52.778Z,23.43
2018-11-26T13:45:26.920Z,22.37
2018-11-26T13:47:55.405Z,23.50
2018-11-26T13:50:28.029Z,23.93
2018-11-26T13:52:56.908Z,22.73
2018-11-26T13:55:25.487Z,23.50
2018-11-26T13:57:54.056Z,23.53
2018-11-26T14:00:22.591Z,24.33
2018-11-26T14:02:51.132Z,24.57
2018-11-26T14:05:20.079Z,22.63
2018-11-26T14:07:48.760Z,21.07
2018-11-26T14:10:24.570Z,23.47
2018-11-26T14:12:57.873Z,24.20
2018-11-26T14:15:26.482Z,23.33
2018-11-26T14:17:55.055Z,25.63
2018-11-26T14:20:23.581Z,23.93
2018-11-26T14:22:52.557Z,25.57
2018-11-26T14:25:21.235Z,26.07
2018-11-26T14:27:49.962Z,24.03
2018-11-26T14:30:23.129Z,24.30
2018-11-26T14:32:51.780Z,24.47
2018-11-26T14:35:20.464Z,23.23
2018-11-26T14:37:50.438Z,25.10
2018-11-26T14:40:20.819Z,25.37
2018-11-26T14:42:49.571Z,25.33
2018-11-26T14:45:18.455Z,25.87
2018-11-26T14:47:53.329Z,26.07
2018-11-26T14:50:21.934Z,24.23
2018-11-26T14:52:50.861Z,21.90
2018-11-26T14:55:27.558Z,24.10
2018-11-26T14:57:56.105Z,24.73
2018-11-26T15:00:26.258Z,23.80
2018-11-26T15:02:54.830Z,24.43
2018-11-26T15:05:23.784Z,24.60
2018-11-26T15:07:52.304Z,23.80
2018-11-26T15:10:22.865Z,25.03
2018-11-26T15:12:51.481Z,22.03
2018-11-26T15:15:27.046Z,24.37
2018-11-26T15:17:55.605Z,25.33
2018-11-26T15:20:27.843Z,25.03
2018-11-26T15:22:58.980Z,22.87
2018-11-26T15:25:29.601Z,24.47
2018-11-26T15:27:59.666Z,24.37
2018-11-26T15:30:28.326Z,25.17
2018-11-26T15:32:57.570Z,25.23
2018-11-26T15:35:27.618Z,25.00
2018-11-26T15:37:56.928Z,23.40
2018-11-26T15:40:26.960Z,23.07
2018-11-26T15:42:56.887Z,24.93
2018-11-26T15:45:27.210Z,23.30
2018-11-26T15:47:57.155Z,24.97
2018-11-26T15:50:25.858Z,21.90
2018-11-26T15:52:54.531Z,25.37
2018-11-26T15:55:23.324Z,24.10
2018-11-26T15:57:52.505Z,24.93
2018-11-26T16:00:25.437Z,26.63
2018-11-26T16:02:54.210Z,24.00
2018-11-26T16:05:26.474Z,25.60
2018-11-26T16:08:02.686Z,25.50
2018-11-26T16:10:31.344Z,24.93
2018-11-26T16:13:01.579Z,26.70
2018-11-26T16:15:35.281Z,21.20
2018-11-26T16:18:06.065Z,21.00
2018-11-26T16:20:34.665Z,24.77
2018-11-26T16:23:03.245Z,21.37
2018-11-26T16:25:31.825Z,23.17
2018-11-26T16:28:00.391Z,23.03
2018-11-26T16:30:28.995Z,25.23
2018-11-26T16:32:58.858Z,24.47
2018-11-26T16:35:31.972Z,24.43
2018-11-26T16:38:00.970Z,22.40
2018-11-26T16:40:31.132Z,23.13
2018-11-26T16:42:59.813Z,22.43
2018-11-26T16:45:28.977Z,23.40
2018-11-26T16:47:58.449Z,23.50
2018-11-26T16:50:29.133Z,20.80
2018-11-26T16:52:57.715Z,22.23
2018-11-26T16:55:26.329Z,22.03
2018-11-26T16:57:54.950Z,22.23
2018-11-26T17:00:29.725Z,24.87
2018-11-26T17:03:00.801Z,23.47
2018-11-26T17:05:31.045Z,23.43
2018-11-26T17:08:00.638Z,23.60
2018-11-26T17:10:29.266Z,23.17
2018-11-26T17:12:57.774Z,23.87
2018-11-26T17:15:26.414Z,24.20
2018-11-26T17:17:54.972Z,20.20
2018-11-26T17:20:23.644Z,22.77
2018-11-26T17:22:52.416Z,24.43
2018-11-26T17:25:21.075Z,23.53
2018-11-26T17:27:49.723Z,21.70
2018-11-26T17:30:22.308Z,24.33
2018-11-26T17:32:52.331Z,25.80
2018-11-26T17:35:21.016Z,24.10
2018-11-26T17:37:50.034Z,25.70
2018-11-26T17:40:20.758Z,25.37
2018-11-26T17:42:49.626Z,23.70
2018-11-26T17:45:18.765Z,25.43
2018-11-26T17:47:48.944Z,24.97
2018-11-26T17:50:22.053Z,25.57
2018-11-26T17:52:51.423Z,24.73
2018-11-26T17:55:19.988Z,22.50
2018-11-26T17:57:48.824Z,21.13
2018-11-26T18:00:19.928Z,23.07
2018-11-26T18:02:49.541Z,21.63
2018-11-26T18:05:19.900Z,22.77
2018-11-26T18:07:58.623Z,21.70
2018-11-26T18:10:27.341Z,24.00
2018-11-26T18:12:55.980Z,22.90
2018-11-26T18:15:24.645Z,23.13
2018-11-26T18:17:53.215Z,22.80
2018-11-26T18:20:22.785Z,24.37
2018-11-26T18:22:53.384Z,23.60
2018-11-26T18:25:23.078Z,22.53
2018-11-26T18:27:57.685Z,22.67
2018-11-26T18:30:45.067Z,24.47
2018-11-26T18:33:13.847Z,22.87
2018-11-26T18:35:43.220Z,21.93
2018-11-26T18:38:11.833Z,25.02
2018-11-26T18:40:41.694Z,22.27
2018-11-26T18:43:10.730Z,22.43
2018-11-26T18:48:20.991Z,20.67
2018-11-26T18:50:50.801Z,18.90
2018-11-26T18:53:19.487Z,20.47
2018-11-26T18:55:48.311Z,17.90
2018-11-26T18:58:20.836Z,19.00
2018-11-26T19:00:55.395Z,18.77
2018-11-26T19:03:24.439Z,18.80
2018-11-26T19:05:54.575Z,17.67
2018-11-26T19:08:24.241Z,18.33
2018-11-26T19:11:06.721Z,19.73
2018-11-26T19:13:45.197Z,20.17
2018-11-26T19:16:19.804Z,18.97
2018-11-26T19:18:48.962Z,20.70
2018-11-26T19:21:26.799Z,20.20
2018-11-26T19:23:56.160Z,19.33
2018-11-26T19:26:25.835Z,20.53
2018-11-26T19:28:54.116Z,20.90
2018-11-26T19:31:27.147Z,21.07
2018-11-26T19:33:55.975Z,22.77
2018-11-26T19:36:24.762Z,21.47
2018-11-26T19:38:53.545Z,21.00
2018-11-26T19:41:29.502Z,21.63
2018-11-26T19:44:11.998Z,22.27
2018-11-26T19:46:46.123Z,17.97
2018-11-26T19:49:15.330Z,22.83
2018-11-26T19:58:03.846Z,24.43
2018-11-26T20:00:35.262Z,25.90
2018-11-26T20:09:08.398Z,25.67
2018-11-26T20:12:23.607Z,22.20
2018-11-26T20:14:55.122Z,23.33
2018-11-26T20:17:24.300Z,23.53
2018-11-26T20:19:55.046Z,21.53
2018-11-26T20:22:24.249Z,25.13
2018-11-26T20:24:53.548Z,23.40
2018-11-26T20:27:22.406Z,23.70
2018-11-26T20:29:51.540Z,24.83
2018-11-26T20:32:21.760Z,24.10
2018-11-26T20:34:52.241Z,23.70
2018-11-26T20:37:21.633Z,25.70
2018-11-26T20:53:47.355Z,24.17
2018-11-26T20:56:18.257Z,26.03
2018-11-26T20:58:47.583Z,22.40
2018-11-26T21:01:16.543Z,23.37
2018-11-26T21:03:45.837Z,26.73
2018-11-26T21:06:15.002Z,24.03
2018-11-26T21:08:45.684Z,23.87
2018-11-26T21:11:14.722Z,25.23
2018-11-26T21:13:45.041Z,21.93
2018-11-26T21:16:13.795Z,24.07
2018-11-26T21:18:42.827Z,24.20
2018-11-26T21:21:11.597Z,23.57
2018-11-26T21:23:42.610Z,24.17
2018-11-26T21:26:11.346Z,23.57
2018-11-26T21:28:41.302Z,23.37
2018-11-26T21:31:10.478Z,22.77
2018-11-26T21:33:39.178Z,23.20
2018-11-26T21:36:08.118Z,24.50
2018-11-26T21:38:38.751Z,23.03
2018-11-26T21:41:07.595Z,19.77
2018-11-26T21:43:36.242Z,22.23
2018-11-26T21:46:05.258Z,24.27
2018-11-26T21:48:34.007Z,21.73
2018-11-26T21:51:02.951Z,23.83
2018-11-26T21:53:32.247Z,23.07
2018-11-26T21:56:00.909Z,22.47
2018-11-26T21:58:40.398Z,17.97
2018-11-26T22:01:10.093Z,22.93
2018-11-26T22:03:57.546Z,23.97
2018-11-26T22:06:26.106Z,23.90
2018-11-26T22:08:55.598Z,24.60
2018-11-26T22:11:23.994Z,23.17
2018-11-26T22:13:52.569Z,23.47
2018-11-26T22:16:21.225Z,23.33
2018-11-26T22:18:51.072Z,24.63
2018-11-26T22:21:19.254Z,21.50
2018-11-26T22:23:48.112Z,21.87
2018-11-26T22:28:49.902Z,23.57
2018-11-26T22:31:18.798Z,22.30
2018-11-26T22:33:47.366Z,22.40
2018-11-26T22:36:15.992Z,23.30
2018-11-26T22:38:45.163Z,21.03
2018-11-26T22:41:20.194Z,21.97
2018-11-26T22:43:53.524Z,21.77
2018-11-26T22:46:25.461Z,24.20
2018-11-26T22:48:54.851Z,20.10
2018-11-26T22:51:24.436Z,21.30
2018-11-26T22:53:53.051Z,22.93
2018-11-26T22:56:21.698Z,22.53
2018-11-26T22:58:50.421Z,18.10
2018-11-26T23:01:19.163Z,22.37
2018-11-26T23:03:47.795Z,21.50
2018-11-26T23:06:16.385Z,22.70
2018-11-26T23:08:45.013Z,21.17
2018-11-26T23:11:13.561Z,22.13
2018-11-26T23:13:43.162Z,19.57
2018-11-26T23:16:11.974Z,20.80
2018-11-26T23:18:40.722Z,20.00
2018-11-26T23:21:09.434Z,19.60
2018-11-26T23:23:38.049Z,19.83
2018-11-26T23:26:06.864Z,19.30
2018-11-26T23:28:35.427Z,19.03
2018-11-26T23:31:04.175Z,18.00
2018-11-26T23:33:32.732Z,17.30
2018-11-26T23:36:01.587Z,17.50
2018-11-26T23:38:30.251Z,18.67
2018-11-26T23:40:58.786Z,20.13
2018-11-26T23:43:27.326Z,19.70
2018-11-26T23:45:55.925Z,19.87
2018-11-26T23:48:24.563Z,18.83
2018-11-26T23:50:53.277Z,20.70
2018-11-26T23:53:22.973Z,20.20
2018-11-26T23:55:51.529Z,18.20
2018-11-26T23:58:20.332Z,19.73
